Time;durP1;ratioP1;P1;durP2;ratioP2;P2;SDS_P1;SDS_P2;PMS_P1;PMS_P2;Temp;Humidity;BMP_temperature;BMP_pressure;BME280_temperature;BME280_humidity;BME280_pressure;Samples;Min_cycle;Max_cycle;Signal;HPM_P1;HPM_P2
2022/03/28 00:01:24;;;;;;;8.43;2.35;;;9.00;98.60;;;;;;4249859;27;20047;-88
2022/03/28 00:03:25;;;;;;;6.35;2.67;;;8.80;98.70;;;;;;4213963;28;20135;-89
2022/03/28 00:05:26;;;;;;;10.30;3.50;;;9.00;98.70;;;;;;4214331;28;20048;-89
2022/03/28 00:07:27;;;;;;;9.35;3.67;;;8.90;98.70;;;;;;4231250;28;20475;-89
2022/03/28 00:09:28;;;;;;;10.45;2.90;;;8.80;98.70;;;;;;4249775;27;20035;-88
2022/03/28 00:11:30;;;;;;;9.80;3.92;;;8.80;98.80;;;;;;4223956;28;20043;-88
2022/03/28 00:13:33;;;;;;;6.10;3.15;;;8.80;98.80;;;;;;4231051;28;20094;-88
2022/03/28 00:15:33;;;;;;;6.68;2.38;;;8.80;98.80;;;;;;4267262;27;20042;-89
2022/03/28 00:17:37;;;;;;;9.32;2.67;;;9.10;98.90;;;;;;4231241;28;20070;-89
2022/03/28 00:19:37;;;;;;;4.38;2.15;;;8.90;99.00;;;;;;4232177;28;20078;-88
2022/03/28 00:21:38;;;;;;;4.97;1.95;;;8.60;98.90;;;;;;4248558;27;20051;-88
2022/03/28 00:23:40;;;;;;;7.97;3.17;;;8.90;99.10;;;;;;4266708;27;20452;-89
2022/03/28 00:25:44;;;;;;;3.50;2.15;;;8.10;98.90;;;;;;4248369;27;20039;-89
2022/03/28 00:27:46;;;;;;;7.25;2.33;;;8.60;99.10;;;;;;4265892;27;20043;-88
2022/03/28 00:29:47;;;;;;;5.65;2.15;;;9.20;99.20;;;;;;4248594;27;20055;-89
2022/03/28 00:31:48;;;;;;;5.55;2.30;;;8.50;99.20;;;;;;4236071;27;20043;-89
2022/03/28 00:33:49;;;;;;;4.35;2.10;;;8.50;99.20;;;;;;4230003;28;20047;-89
2022/03/28 00:35:49;;;;;;;3.45;1.92;;;8.40;99.20;;;;;;4217550;28;20176;-88
2022/03/28 00:37:50;;;;;;;2.35;1.83;;;8.60;99.20;;;;;;4218233;28;20039;-89
2022/03/28 00:39:52;;;;;;;5.78;1.90;;;8.30;99.20;;;;;;4231101;28;20054;-89
2022/03/28 00:41:55;;;;;;;5.60;1.77;;;8.30;99.40;;;;;;4247709;27;20054;-89
2022/03/28 00:43:58;;;;;;;4.63;2.08;;;8.50;99.50;;;;;;4265693;27;20034;-89
2022/03/28 00:46:00;;;;;;;3.95;2.15;;;9.10;99.50;;;;;;4245276;27;20051;-88
2022/03/28 00:48:02;;;;;;;4.90;1.80;;;8.50;99.30;;;;;;4230937;28;20156;-89
2022/03/28 00:50:04;;;;;;;6.05;2.30;;;8.30;99.20;;;;;;4249810;27;20575;-89
2022/03/28 00:52:09;;;;;;;6.93;2.33;;;8.30;99.40;;;;;;4223873;28;20529;-89
2022/03/28 00:54:10;;;;;;;3.33;2.10;;;8.20;99.40;;;;;;4248023;27;20082;-89
2022/03/28 00:56:13;;;;;;;5.13;2.17;;;8.30;99.40;;;;;;4248873;27;20047;-89
2022/03/28 00:58:14;;;;;;;3.30;2.05;;;8.50;99.40;;;;;;4267288;27;20039;-89
2022/03/28 01:00:16;;;;;;;4.22;2.08;;;8.50;99.50;;;;;;4248490;27;20558;-89
2022/03/28 01:02:16;;;;;;;5.13;2.45;;;8.20;99.60;;;;;;4230471;28;20105;-89
2022/03/28 01:04:17;;;;;;;7.80;2.80;;;8.20;99.80;;;;;;4214100;28;20122;-88
2022/03/28 01:06:18;;;;;;;6.60;2.03;;;8.10;99.80;;;;;;4230101;28;20047;-89
2022/03/28 01:08:19;;;;;;;8.05;2.67;;;7.70;99.70;;;;;;4229657;28;20054;-89
2022/03/28 01:10:19;;;;;;;8.35;3.30;;;7.50;99.60;;;;;;4248625;27;20074;-89
2022/03/28 01:12:25;;;;;;;7.03;2.75;;;7.50;99.70;;;;;;4247501;27;20125;-89
2022/03/28 01:14:27;;;;;;;5.32;2.60;;;8.10;99.90;;;;;;4247044;27;20523;-89
2022/03/28 01:18:05;;;;;;;4.10;2.60;;;9.10;99.90;;;;;;4264132;27;20582;-89
2022/03/28 01:18:57;;;;;;;4.05;2.70;;;8.10;99.90;;;;;;4263765;27;20085;-89
2022/03/28 01:21:02;;;;;;;11.40;2.70;;;8.60;99.90;;;;;;4216310;28;20052;-89
2022/03/28 01:23:04;;;;;;;6.85;2.58;;;8.60;99.90;;;;;;4224128;28;20082;-89
2022/03/28 01:25:07;;;;;;;5.72;2.72;;;8.10;99.90;;;;;;4213831;28;20048;-89
2022/03/28 01:27:09;;;;;;;7.82;3.78;;;8.00;99.90;;;;;;4197118;28;20048;-89
2022/03/28 01:29:10;;;;;;;4.35;2.47;;;8.10;99.90;;;;;;4214863;28;20080;-89
2022/03/28 01:31:10;;;;;;;8.75;3.17;;;8.10;99.90;;;;;;4213507;28;20070;-89
2022/03/28 01:33:11;;;;;;;7.90;2.92;;;7.30;99.90;;;;;;4229134;28;20052;-89
2022/03/28 01:35:13;;;;;;;5.85;3.20;;;8.10;99.90;;;;;;4212744;28;20060;-89
2022/03/28 01:37:13;;;;;;;10.00;3.08;;;8.20;99.90;;;;;;4198146;28;20492;-89
2022/03/28 01:39:22;;;;;;;9.55;3.55;;;9.30;99.90;;;;;;4231111;28;20051;-89
2022/03/28 01:41:25;;;;;;;5.70;3.00;;;8.40;99.90;;;;;;4222349;28;20555;-88
2022/03/28 01:43:26;;;;;;;5.15;3.08;;;8.10;99.90;;;;;;4214657;28;20063;-89
2022/03/28 01:45:27;;;;;;;8.68;3.03;;;8.80;99.90;;;;;;4215009;28;20044;-88
2022/03/28 01:47:28;;;;;;;4.88;2.40;;;8.30;99.90;;;;;;4196821;28;20048;-88
2022/03/28 01:49:28;;;;;;;3.60;2.40;;;7.90;99.90;;;;;;4198034;28;20052;-88
2022/03/28 01:51:29;;;;;;;6.10;3.10;;;8.50;99.90;;;;;;4213956;28;20094;-88
2022/03/28 01:53:31;;;;;;;4.88;2.55;;;7.90;99.90;;;;;;4213485;28;20074;-88
2022/03/28 01:55:32;;;;;;;6.38;3.20;;;7.90;99.90;;;;;;4197987;28;20045;-88
2022/03/28 01:57:33;;;;;;;5.05;2.70;;;7.80;99.90;;;;;;4213154;28;20059;-88
2022/03/28 01:59:34;;;;;;;6.72;2.83;;;8.20;99.90;;;;;;4212677;28;20047;-88
2022/03/28 02:01:36;;;;;;;6.93;2.90;;;7.70;99.90;;;;;;4196136;28;20044;-89
2022/03/28 02:03:37;;;;;;;5.68;3.00;;;7.60;99.90;;;;;;4214200;28;20044;-89
2022/03/28 02:05:38;;;;;;;6.03;3.30;;;7.00;99.90;;;;;;4214052;28;20057;-89
2022/03/28 02:07:40;;;;;;;5.70;3.15;;;7.60;99.90;;;;;;4205957;28;20055;-88
2022/03/28 02:09:42;;;;;;;8.25;3.53;;;7.40;99.90;;;;;;4229610;28;20039;-89
2022/03/28 02:11:42;;;;;;;6.07;3.55;;;7.90;99.90;;;;;;4229737;28;20055;-88
2022/03/28 02:13:43;;;;;;;7.03;3.20;;;7.50;99.90;;;;;;4212711;28;20054;-89
2022/03/28 02:15:44;;;;;;;6.53;3.63;;;7.50;99.90;;;;;;4229820;28;20538;-88
2022/03/28 02:17:45;;;;;;;6.70;3.67;;;8.10;99.90;;;;;;4229971;28;20515;-89
2022/03/28 02:19:46;;;;;;;6.78;3.47;;;8.10;99.90;;;;;;4230533;28;20553;-88
2022/03/28 02:21:47;;;;;;;7.28;3.28;;;7.60;99.90;;;;;;4256164;27;20059;-88
2022/03/28 02:23:48;;;;;;;6.95;3.65;;;7.50;99.90;;;;;;4229033;28;20036;-88
2022/03/28 02:25:50;;;;;;;3.67;2.58;;;8.00;99.90;;;;;;4226117;28;20106;-89
2022/03/28 02:27:51;;;;;;;5.32;2.70;;;7.70;99.90;;;;;;4249124;28;20046;-89
2022/03/28 02:29:54;;;;;;;4.90;2.72;;;8.60;99.90;;;;;;4226584;28;20313;-89
2022/03/28 02:31:55;;;;;;;5.28;2.30;;;7.50;99.90;;;;;;4230403;28;20040;-89
2022/03/28 02:33:56;;;;;;;3.85;2.33;;;8.10;99.90;;;;;;4229810;28;20074;-89
2022/03/28 02:35:56;;;;;;;3.92;1.98;;;7.50;99.90;;;;;;4234453;28;20100;-89
2022/03/28 02:38:01;;;;;;;3.95;2.25;;;8.00;99.90;;;;;;4266521;27;20035;-88
2022/03/28 02:40:03;;;;;;;4.43;2.25;;;8.70;99.90;;;;;;4233067;28;20090;-87
2022/03/28 02:42:05;;;;;;;4.93;2.55;;;7.50;99.90;;;;;;4231574;28;20051;-87
2022/03/28 02:44:05;;;;;;;4.05;2.08;;;7.50;99.90;;;;;;4248318;27;20043;-89
2022/03/28 02:46:07;;;;;;;3.45;1.98;;;7.50;99.90;;;;;;4215809;28;20043;-88
2022/03/28 02:48:08;;;;;;;4.88;2.42;;;8.00;99.90;;;;;;4251972;28;20058;-88
2022/03/28 02:50:09;;;;;;;4.97;2.38;;;7.50;99.90;;;;;;4215555;28;20492;-88
2022/03/28 02:52:10;;;;;;;4.13;2.28;;;8.30;99.90;;;;;;4215496;28;20221;-87
2022/03/28 02:54:13;;;;;;;4.72;2.50;;;7.50;99.90;;;;;;4263104;27;20042;-88
2022/03/28 02:56:14;;;;;;;5.93;2.47;;;7.50;99.90;;;;;;4246331;28;20055;-88
2022/03/28 02:58:15;;;;;;;5.10;2.55;;;7.40;99.90;;;;;;4264948;27;20034;-88
2022/03/28 03:00:17;;;;;;;5.28;2.40;;;8.10;99.90;;;;;;4230347;28;20593;-88
2022/03/28 03:02:18;;;;;;;5.07;2.53;;;8.20;99.90;;;;;;4259190;27;20138;-88
2022/03/28 03:04:19;;;;;;;4.22;2.30;;;7.90;99.90;;;;;;4232326;28;20047;-88
2022/03/28 03:06:20;;;;;;;4.60;2.60;;;8.30;99.90;;;;;;4267154;27;20052;-87
2022/03/28 03:08:20;;;;;;;4.97;3.05;;;7.40;99.90;;;;;;4231361;28;20051;-88
2022/03/28 03:10:21;;;;;;;4.85;2.95;;;7.80;99.90;;;;;;4267056;27;20061;-88
2022/03/28 03:12:22;;;;;;;3.85;2.42;;;8.00;99.90;;;;;;4267756;27;20383;-88
2022/03/28 03:14:23;;;;;;;6.18;2.67;;;7.40;99.90;;;;;;4248516;27;20147;-88
2022/03/28 03:16:24;;;;;;;4.35;2.50;;;7.40;99.90;;;;;;4231973;28;20483;-88
2022/03/28 03:18:25;;;;;;;4.32;2.53;;;7.30;99.90;;;;;;4248858;27;20075;-87
2022/03/28 03:20:26;;;;;;;4.07;2.10;;;7.30;99.90;;;;;;4231791;28;20106;-87
2022/03/28 03:22:27;;;;;;;5.28;1.98;;;6.60;99.90;;;;;;4231621;28;20079;-88
2022/03/28 03:24:29;;;;;;;2.42;1.58;;;7.50;99.90;;;;;;4267241;27;20039;-86
2022/03/28 03:26:29;;;;;;;3.17;1.65;;;7.30;99.90;;;;;;4230458;28;20501;-88
2022/03/28 03:28:30;;;;;;;3.67;2.00;;;7.50;99.90;;;;;;4230757;28;20154;-87
2022/03/28 03:30:31;;;;;;;4.20;1.85;;;8.40;99.90;;;;;;4250977;27;20437;-88
2022/03/28 03:32:32;;;;;;;3.58;1.90;;;7.30;99.90;;;;;;4225235;28;20075;-88
2022/03/28 03:34:33;;;;;;;2.65;1.60;;;8.10;99.90;;;;;;4250983;27;20047;-86
2022/03/28 03:36:34;;;;;;;2.20;1.25;;;7.30;99.90;;;;;;4268329;27;20070;-87
2022/03/28 03:38:36;;;;;;;2.40;1.50;;;7.20;99.90;;;;;;4267966;27;20096;-88
2022/03/28 03:40:37;;;;;;;3.30;2.22;;;7.20;99.90;;;;;;4248241;27;20415;-88
2022/03/28 03:42:58;;;;;;;2.25;1.50;;;7.20;99.90;;;;;;4267515;27;20034;-88
2022/03/28 03:45:00;;;;;;;3.15;1.42;;;8.20;99.90;;;;;;4217260;28;20043;-88
2022/03/28 03:47:00;;;;;;;2.47;1.38;;;8.10;99.90;;;;;;4231662;28;20479;-89
2022/03/28 03:49:01;;;;;;;2.83;1.60;;;7.20;99.90;;;;;;4214519;28;20058;-88
2022/03/28 03:51:02;;;;;;;2.92;1.60;;;7.10;99.90;;;;;;4214373;28;20074;-87
2022/03/28 03:53:03;;;;;;;3.65;1.58;;;7.10;99.90;;;;;;4231014;28;20491;-88
2022/03/28 03:55:06;;;;;;;2.63;1.30;;;8.30;99.90;;;;;;4231147;28;20051;-87
2022/03/28 03:57:07;;;;;;;2.55;1.58;;;7.20;99.90;;;;;;4253588;27;20039;-87
2022/03/28 03:59:08;;;;;;;2.30;1.25;;;7.90;99.90;;;;;;4231354;28;20059;-87
2022/03/28 04:01:09;;;;;;;1.75;1.13;;;7.10;99.90;;;;;;4265526;27;20042;-87
2022/03/28 04:03:10;;;;;;;1.85;1.10;;;7.50;99.90;;;;;;4230466;28;20146;-87
2022/03/28 04:05:11;;;;;;;1.88;1.10;;;7.00;99.90;;;;;;4266301;27;20039;-87
2022/03/28 04:07:11;;;;;;;1.40;1.00;;;7.00;99.90;;;;;;4247993;27;20662;-88
2022/03/28 04:09:12;;;;;;;1.67;1.08;;;7.60;99.90;;;;;;4247840;27;20395;-88
2022/03/28 04:11:13;;;;;;;1.52;0.90;;;6.90;99.90;;;;;;4247049;27;20043;-88
2022/03/28 04:13:14;;;;;;;1.05;0.75;;;6.90;99.90;;;;;;4230973;28;20051;-88
2022/03/28 04:15:16;;;;;;;1.35;0.70;;;7.40;99.90;;;;;;4263868;27;20072;-88
2022/03/28 04:17:19;;;;;;;1.23;0.80;;;7.60;99.90;;;;;;4239948;27;20104;-88
2022/03/28 04:19:20;;;;;;;1.50;0.90;;;8.00;99.90;;;;;;4260312;27;20046;-87
2022/03/28 04:21:20;;;;;;;2.10;1.00;;;7.30;99.90;;;;;;4263004;27;20079;-86
2022/03/28 04:23:23;;;;;;;4.50;1.65;;;6.80;99.90;;;;;;4216029;28;20653;-88
2022/03/28 04:25:24;;;;;;;2.35;1.30;;;7.10;99.90;;;;;;4249252;27;20483;-88
2022/03/28 04:27:24;;;;;;;2.22;1.40;;;6.90;99.90;;;;;;4250180;27;20039;-88
2022/03/28 04:29:28;;;;;;;3.05;1.80;;;6.90;99.90;;;;;;4236544;27;20042;-88
2022/03/28 04:31:29;;;;;;;1.80;1.25;;;6.90;99.90;;;;;;4248741;27;20056;-88
2022/03/28 04:33:30;;;;;;;2.42;1.60;;;6.90;99.90;;;;;;4248988;27;20472;-88
2022/03/28 04:35:30;;;;;;;2.28;1.48;;;7.10;99.90;;;;;;4244567;27;20240;-88
2022/03/28 04:37:36;;;;;;;2.58;1.42;;;7.90;99.90;;;;;;4231477;28;20039;-89
2022/03/28 04:39:39;;;;;;;2.10;1.33;;;8.00;99.90;;;;;;4253361;27;20031;-88
2022/03/28 04:41:40;;;;;;;3.22;1.75;;;7.40;99.90;;;;;;4257412;27;20043;-88
2022/03/28 04:43:41;;;;;;;3.92;1.75;;;6.90;99.90;;;;;;4217006;28;20431;-87
2022/03/28 04:45:42;;;;;;;3.80;2.25;;;6.90;99.90;;;;;;4234751;27;20048;-88
2022/03/28 04:47:43;;;;;;;4.85;2.75;;;7.30;99.90;;;;;;4231814;28;20039;-88
2022/03/28 04:49:44;;;;;;;5.05;2.47;;;7.10;99.90;;;;;;4243250;28;20044;-87
2022/03/28 04:51:45;;;;;;;5.50;2.70;;;6.80;99.90;;;;;;4247577;28;20105;-88
2022/03/28 04:53:46;;;;;;;5.07;3.15;;;6.80;99.90;;;;;;4266400;27;20070;-87
2022/03/28 04:55:47;;;;;;;5.55;2.97;;;6.80;99.90;;;;;;4235109;28;20062;-87
2022/03/28 04:57:48;;;;;;;8.90;3.35;;;6.70;99.90;;;;;;4248413;28;20048;-86
2022/03/28 04:59:49;;;;;;;5.72;2.97;;;7.50;99.90;;;;;;4227773;28;20495;-87
2022/03/28 05:01:50;;;;;;;7.65;3.55;;;6.80;99.90;;;;;;4247066;27;20049;-87
2022/03/28 05:03:52;;;;;;;6.88;3.58;;;6.70;99.90;;;;;;4232174;28;20068;-88
2022/03/28 05:05:53;;;;;;;7.57;3.50;;;6.70;99.90;;;;;;4250245;27;20376;-86
2022/03/28 05:07:53;;;;;;;6.35;3.47;;;7.40;99.90;;;;;;4230647;28;20078;-88
2022/03/28 05:09:56;;;;;;;6.50;3.30;;;7.50;99.90;;;;;;4213384;28;20052;-88
2022/03/28 05:11:58;;;;;;;7.45;4.05;;;6.00;99.90;;;;;;4249108;27;20043;-88
2022/03/28 05:14:00;;;;;;;6.28;3.25;;;7.00;99.90;;;;;;4230008;28;20071;-88
2022/03/28 05:16:02;;;;;;;5.85;3.22;;;6.60;99.90;;;;;;4230576;27;20050;-88
2022/03/28 05:18:03;;;;;;;6.15;3.40;;;6.70;99.90;;;;;;4246912;27;20043;-88
2022/03/28 05:20:05;;;;;;;6.78;3.65;;;6.70;99.90;;;;;;4219343;28;20499;-88
2022/03/28 05:22:06;;;;;;;6.32;3.88;;;6.70;99.90;;;;;;4229187;28;20145;-87
2022/03/28 05:24:07;;;;;;;8.00;3.53;;;7.20;99.90;;;;;;4229542;28;20496;-89
2022/03/28 05:26:08;;;;;;;4.88;2.92;;;6.70;99.90;;;;;;4228696;28;20493;-88
2022/03/28 05:28:09;;;;;;;4.65;2.70;;;7.10;99.90;;;;;;4229591;28;20503;-88
2022/03/28 05:30:12;;;;;;;6.55;2.63;;;6.70;99.90;;;;;;4212368;28;20443;-87
2022/03/28 05:32:13;;;;;;;7.47;3.47;;;6.70;99.90;;;;;;4247515;27;20042;-88
2022/03/28 05:34:15;;;;;;;7.03;3.42;;;6.70;99.90;;;;;;4230953;27;20052;-88
2022/03/28 05:36:16;;;;;;;7.40;2.83;;;6.70;99.90;;;;;;4246301;27;20047;-87
2022/03/28 05:38:18;;;;;;;7.50;3.70;;;6.70;99.90;;;;;;4246270;27;20043;-87
2022/03/28 05:40:20;;;;;;;8.60;3.60;;;6.70;99.90;;;;;;4246980;27;20058;-88
2022/03/28 05:42:21;;;;;;;8.30;4.15;;;6.80;99.90;;;;;;4230129;28;20097;-89
2022/03/28 05:44:21;;;;;;;6.57;4.10;;;7.30;99.90;;;;;;4248342;27;20513;-88
2022/03/28 05:46:25;;;;;;;6.93;3.95;;;7.40;99.90;;;;;;4231067;28;20047;-88
2022/03/28 05:48:33;;;;;;;8.70;4.65;;;7.90;99.90;;;;;;4249146;27;20039;-88
2022/03/28 05:50:34;;;;;;;8.93;4.57;;;7.00;99.90;;;;;;4252294;27;20422;-87
2022/03/28 05:52:35;;;;;;;6.57;4.20;;;6.50;99.90;;;;;;4250801;27;20459;-89
2022/03/28 05:54:36;;;;;;;7.07;4.10;;;6.70;99.90;;;;;;4246131;27;20086;-90
2022/03/28 05:56:40;;;;;;;8.00;3.70;;;6.20;99.90;;;;;;4217953;28;20052;-88
2022/03/28 05:58:43;;;;;;;9.80;4.30;;;7.90;99.90;;;;;;4228571;28;20077;-88
2022/03/28 06:00:44;;;;;;;5.85;3.85;;;7.50;99.90;;;;;;4248223;28;20043;-88
2022/03/28 06:02:45;;;;;;;9.32;4.47;;;6.80;99.90;;;;;;4230231;28;20534;-88
2022/03/28 06:04:45;;;;;;;9.65;4.47;;;7.50;99.90;;;;;;4229816;28;20044;-88
2022/03/28 06:06:46;;;;;;;7.57;3.63;;;6.80;99.90;;;;;;4225818;28;20043;-89
2022/03/28 06:08:47;;;;;;;5.70;3.22;;;6.80;99.90;;;;;;4230074;28;20085;-89
2022/03/28 06:10:48;;;;;;;5.25;3.00;;;7.50;99.90;;;;;;4220633;28;20127;-88
2022/03/28 06:12:48;;;;;;;4.72;3.05;;;6.90;99.90;;;;;;4229166;28;20067;-88
2022/03/28 06:14:49;;;;;;;4.65;3.53;;;6.80;99.90;;;;;;4247060;27;20129;-88
2022/03/28 06:16:50;;;;;;;6.70;3.70;;;7.60;99.90;;;;;;4215552;28;20048;-88
2022/03/28 06:18:52;;;;;;;7.03;3.05;;;6.80;99.90;;;;;;4228716;28;20054;-88
2022/03/28 06:20:53;;;;;;;7.47;3.40;;;6.90;99.90;;;;;;4224831;28;20055;-88
2022/03/28 06:22:55;;;;;;;10.00;3.60;;;7.50;99.90;;;;;;4259115;27;20413;-88
2022/03/28 06:24:59;;;;;;;6.35;3.97;;;6.00;99.90;;;;;;4226583;28;20423;-88
2022/03/28 06:27:00;;;;;;;5.80;3.50;;;7.20;99.90;;;;;;4249936;27;20054;-88
2022/03/28 06:29:01;;;;;;;4.53;3.30;;;6.90;99.90;;;;;;4241324;28;20483;-88
2022/03/28 06:31:02;;;;;;;9.18;4.03;;;7.40;99.90;;;;;;4244813;28;20055;-88
2022/03/28 06:33:03;;;;;;;8.20;3.97;;;7.20;99.90;;;;;;4245627;28;20043;-88
2022/03/28 06:35:05;;;;;;;5.80;3.83;;;6.90;99.90;;;;;;4248308;27;20048;-89
2022/03/28 06:37:05;;;;;;;6.22;3.42;;;6.90;99.90;;;;;;4232818;28;20050;-88
2022/03/28 06:39:06;;;;;;;5.35;3.78;;;7.60;99.90;;;;;;4262232;27;20118;-88
2022/03/28 06:41:09;;;;;;;7.10;3.90;;;8.20;99.90;;;;;;4214999;28;20047;-88
2022/03/28 06:43:10;;;;;;;6.80;3.80;;;7.70;99.90;;;;;;4215754;28;20051;-88
2022/03/28 06:45:11;;;;;;;6.93;4.18;;;7.10;99.90;;;;;;4245901;27;20057;-88
2022/03/28 06:47:13;;;;;;;7.65;4.53;;;7.20;99.90;;;;;;4215320;28;20043;-88
2022/03/28 06:49:14;;;;;;;8.15;4.85;;;7.80;99.90;;;;;;4231961;28;20048;-88
2022/03/28 06:51:15;;;;;;;7.65;4.72;;;7.00;99.90;;;;;;4220149;28;20066;-89
2022/03/28 06:53:16;;;;;;;7.40;4.20;;;7.10;99.90;;;;;;4232645;28;20047;-87
2022/03/28 06:55:18;;;;;;;12.18;6.13;;;7.00;99.90;;;;;;4248221;27;20042;-87
2022/03/28 06:57:20;;;;;;;12.40;5.60;;;7.00;99.90;;;;;;4241167;27;20483;-87
2022/03/28 06:59:24;;;;;;;9.32;5.22;;;7.00;99.90;;;;;;4248662;27;20102;-87
2022/03/28 07:01:24;;;;;;;9.25;4.45;;;8.10;99.90;;;;;;4251124;27;20039;-88
2022/03/28 07:03:26;;;;;;;9.68;5.05;;;7.60;99.90;;;;;;4246214;27;20050;-88
2022/03/28 07:05:28;;;;;;;8.30;4.50;;;7.40;99.90;;;;;;4250267;27;20047;-88
2022/03/28 07:07:46;;;;;;;8.73;4.70;;;7.20;99.90;;;;;;4231210;28;20060;-87
2022/03/28 07:09:46;;;;;;;9.95;5.13;;;7.10;99.90;;;;;;4231016;28;20547;-88
2022/03/28 07:11:47;;;;;;;9.32;5.53;;;7.60;99.90;;;;;;4256529;27;20135;-88
2022/03/28 07:13:48;;;;;;;12.63;6.22;;;7.20;99.90;;;;;;4266931;27;20403;-88
2022/03/28 07:15:49;;;;;;;11.52;6.47;;;7.20;99.90;;;;;;4245024;27;20137;-87
2022/03/28 07:17:52;;;;;;;10.18;6.38;;;7.70;99.90;;;;;;4251611;27;20035;-87
2022/03/28 07:19:53;;;;;;;10.40;6.22;;;7.30;99.90;;;;;;4227430;28;20036;-86
2022/03/28 07:21:54;;;;;;;11.55;5.97;;;8.10;99.90;;;;;;4251024;27;20055;-86
2022/03/28 07:23:55;;;;;;;11.50;6.97;;;7.30;99.90;;;;;;4263705;27;20050;-86
2022/03/28 07:25:56;;;;;;;12.82;7.07;;;7.30;99.90;;;;;;4267030;27;20049;-86
2022/03/28 07:27:58;;;;;;;22.05;7.22;;;7.40;99.90;;;;;;4217524;28;20539;-87
2022/03/28 07:29:59;;;;;;;10.13;5.82;;;8.10;99.90;;;;;;4218095;28;20574;-87
2022/03/28 07:32:01;;;;;;;7.90;5.13;;;8.50;99.90;;;;;;4256814;27;20035;-86
2022/03/28 07:36:25;;;;;;;15.25;8.75;;;8.40;99.90;;;;;;4268452;27;20046;-86
2022/03/28 07:38:25;;;;;;;15.20;8.32;;;7.50;99.90;;;;;;4231608;28;20515;-85
2022/03/28 07:40:27;;;;;;;15.43;8.23;;;7.70;99.90;;;;;;4266730;27;20134;-85
2022/03/28 07:42:28;;;;;;;11.70;7.43;;;7.50;99.90;;;;;;4249864;27;20526;-85
2022/03/28 07:44:29;;;;;;;13.40;6.50;;;8.10;99.90;;;;;;4241120;27;20549;-84
2022/03/28 07:46:31;;;;;;;14.80;7.32;;;7.80;99.90;;;;;;4229921;28;20055;-85
2022/03/28 07:48:32;;;;;;;12.57;6.93;;;7.60;99.90;;;;;;4231521;28;20052;-85
2022/03/28 07:50:34;;;;;;;12.68;7.47;;;7.60;99.90;;;;;;4231992;28;20061;-86
2022/03/28 07:52:36;;;;;;;11.15;6.65;;;7.70;99.90;;;;;;4233704;27;20112;-86
2022/03/28 07:54:37;;;;;;;13.48;6.38;;;7.70;99.90;;;;;;4248269;27;20069;-86
2022/03/28 07:56:38;;;;;;;11.55;6.65;;;8.00;99.90;;;;;;4238169;27;20075;-86
2022/03/28 07:58:39;;;;;;;11.00;6.47;;;7.70;99.90;;;;;;4230794;28;20047;-85
2022/03/28 08:00:40;;;;;;;11.90;6.55;;;7.70;99.90;;;;;;4214506;28;20412;-86
2022/03/28 08:02:42;;;;;;;9.48;6.38;;;8.10;99.90;;;;;;4231459;28;20040;-88
2022/03/28 08:04:43;;;;;;;10.40;7.30;;;8.60;99.90;;;;;;4232279;27;20529;-88
2022/03/28 08:06:44;;;;;;;14.63;6.28;;;8.70;99.90;;;;;;4252192;27;20031;-87
2022/03/28 08:08:45;;;;;;;11.40;6.60;;;7.90;99.90;;;;;;4241635;27;20051;-88
2022/03/28 08:10:46;;;;;;;12.57;6.32;;;7.90;99.90;;;;;;4238389;27;20039;-87
2022/03/28 08:12:48;;;;;;;11.75;6.57;;;7.90;99.90;;;;;;4240192;27;20039;-87
2022/03/28 08:14:50;;;;;;;11.15;6.57;;;7.80;99.90;;;;;;4248600;27;20050;-85
2022/03/28 08:16:53;;;;;;;11.40;6.70;;;8.80;99.90;;;;;;4230500;27;20039;-87
2022/03/28 08:18:53;;;;;;;12.05;6.97;;;7.90;99.90;;;;;;4246684;27;20126;-86
2022/03/28 08:20:54;;;;;;;12.15;7.03;;;7.90;99.90;;;;;;4217045;28;20547;-86
2022/03/28 08:22:59;;;;;;;12.52;6.80;;;7.90;99.90;;;;;;4245179;27;20050;-87
2022/03/28 08:24:59;;;;;;;13.05;7.63;;;7.90;99.90;;;;;;4229904;28;20051;-88
2022/03/28 08:27:00;;;;;;;17.70;7.47;;;8.00;99.90;;;;;;4221374;28;20519;-87
2022/03/28 08:29:03;;;;;;;16.83;8.88;;;8.20;99.90;;;;;;4237611;27;20031;-87
2022/03/28 08:31:04;;;;;;;14.35;7.78;;;7.90;99.90;;;;;;4246991;27;20461;-87
2022/03/28 08:33:05;;;;;;;14.32;8.23;;;7.90;99.90;;;;;;4233388;27;20036;-86
2022/03/28 08:35:07;;;;;;;14.15;8.52;;;7.90;99.90;;;;;;4220570;28;20043;-88
2022/03/28 08:37:09;;;;;;;13.70;7.25;;;7.10;99.90;;;;;;4231276;28;20487;-87
2022/03/28 08:39:10;;;;;;;11.63;7.53;;;8.00;99.90;;;;;;4249616;27;20047;-86
2022/03/28 08:41:14;;;;;;;11.65;7.25;;;8.50;99.90;;;;;;4248482;27;20422;-87
2022/03/28 08:43:19;;;;;;;12.95;8.00;;;8.00;99.90;;;;;;4234944;27;20058;-86
2022/03/28 08:45:20;;;;;;;13.60;6.93;;;8.60;99.90;;;;;;4248127;27;20047;-86
2022/03/28 08:47:23;;;;;;;16.27;6.97;;;8.10;99.90;;;;;;4246210;27;20031;-86
2022/03/28 08:49:25;;;;;;;12.88;7.00;;;8.10;99.90;;;;;;4247415;27;20062;-86
2022/03/28 08:51:29;;;;;;;13.95;6.93;;;8.10;99.90;;;;;;4243159;27;20043;-86
2022/03/28 08:53:31;;;;;;;14.27;7.50;;;9.10;99.90;;;;;;4220421;28;20506;-85
2022/03/28 08:55:32;;;;;;;16.58;9.93;;;8.40;99.90;;;;;;4231949;28;20040;-86
2022/03/28 08:57:33;;;;;;;10.40;7.07;;;8.60;99.90;;;;;;4231959;28;20507;-84
2022/03/28 08:59:34;;;;;;;14.38;7.53;;;8.20;99.90;;;;;;4231644;28;20052;-85
2022/03/28 09:01:36;;;;;;;15.35;7.15;;;8.20;99.90;;;;;;4231520;28;20093;-87
2022/03/28 09:03:44;;;;;;;11.85;7.05;;;8.30;99.90;;;;;;4242809;27;20123;-86
2022/03/28 09:05:49;;;;;;;12.52;6.97;;;8.30;99.90;;;;;;4245121;27;20035;-87
2022/03/28 09:07:52;;;;;;;11.75;7.00;;;8.30;99.90;;;;;;4246404;27;20055;-87
2022/03/28 09:10:00;;;;;;;12.10;7.22;;;9.00;99.90;;;;;;4239312;27;20138;-87
2022/03/28 09:12:09;;;;;;;11.98;6.80;;;8.40;99.90;;;;;;4213281;28;20076;-87
2022/03/28 09:14:12;;;;;;;13.50;7.68;;;8.40;99.90;;;;;;4244609;27;20047;-86
2022/03/28 09:16:23;;;;;;;11.38;6.78;;;8.50;99.90;;;;;;4236857;27;20431;-87
2022/03/28 09:18:25;;;;;;;15.20;7.78;;;8.50;99.90;;;;;;4244344;27;20043;-86
2022/03/28 09:20:26;;;;;;;18.15;7.47;;;8.60;99.90;;;;;;4245467;27;20083;-86
2022/03/28 09:22:29;;;;;;;13.50;7.38;;;;;;;;;;4242374;27;20039;-86
2022/03/28 09:24:36;;;;;;;11.20;7.25;;;8.50;99.90;;;;;;4230479;28;20052;-86
2022/03/28 09:26:36;;;;;;;14.88;6.90;;;8.60;99.90;;;;;;4224323;28;20104;-86
2022/03/28 09:28:37;;;;;;;14.77;7.07;;;8.60;99.90;;;;;;4214063;28;20503;-85
2022/03/28 09:30:38;;;;;;;12.15;7.45;;;8.60;99.90;;;;;;4230881;28;20043;-86
2022/03/28 09:32:41;;;;;;;14.75;8.13;;;7.80;99.90;;;;;;4232228;27;20090;-84
2022/03/28 09:34:43;;;;;;;11.85;7.32;;;8.80;99.90;;;;;;4219605;28;20403;-87
2022/03/28 09:36:51;;;;;;;14.27;7.72;;;8.60;99.90;;;;;;4247751;27;20137;-84
2022/03/28 09:38:55;;;;;;;15.45;7.45;;;9.10;99.90;;;;;;4254330;27;20046;-86
2022/03/28 09:40:57;;;;;;;14.35;7.63;;;8.60;99.90;;;;;;4231108;28;20095;-86
2022/03/28 09:42:59;;;;;;;17.10;8.07;;;8.70;99.90;;;;;;4266249;27;20046;-86
2022/03/28 09:45:03;;;;;;;13.52;7.93;;;8.70;99.90;;;;;;4233100;27;20511;-86
2022/03/28 09:47:17;;;;;;;14.68;9.13;;;9.10;99.90;;;;;;4219629;27;20411;-87
2022/03/28 09:49:24;;;;;;;14.85;7.68;;;9.20;99.90;;;;;;4252091;27;20536;-86
2022/03/28 09:51:30;;;;;;;18.48;9.13;;;9.50;99.90;;;;;;4266148;27;20045;-86
2022/03/28 09:53:35;;;;;;;18.65;8.07;;;8.80;99.90;;;;;;4230185;28;20530;-85
2022/03/28 09:56:09;;;;;;;15.43;8.75;;;8.80;99.90;;;;;;4247060;27;20043;-87
2022/03/28 09:58:10;;;;;;;18.48;8.60;;;8.90;99.90;;;;;;4181227;28;20088;-87
2022/03/28 10:00:14;;;;;;;15.95;8.65;;;8.70;99.90;;;;;;4236619;27;20051;-86
2022/03/28 10:02:16;;;;;;;13.43;7.72;;;8.80;99.90;;;;;;4246747;27;20147;-87
2022/03/28 10:04:18;;;;;;;13.90;8.10;;;8.80;99.90;;;;;;4213614;28;20048;-86
2022/03/28 10:06:20;;;;;;;12.38;7.40;;;8.80;99.90;;;;;;4248715;27;20063;-88
2022/03/28 10:08:20;;;;;;;16.33;8.25;;;8.90;99.90;;;;;;4248174;27;20103;-86
2022/03/28 10:10:21;;;;;;;13.60;7.30;;;8.90;99.90;;;;;;4216333;28;20043;-87
2022/03/28 10:12:23;;;;;;;11.07;7.25;;;9.00;99.90;;;;;;4252731;27;20090;-86
2022/03/28 10:14:24;;;;;;;12.40;7.70;;;9.30;99.90;;;;;;4226053;28;20047;-86
2022/03/28 10:16:26;;;;;;;13.20;7.43;;;9.90;99.90;;;;;;4251147;27;20546;-88
2022/03/28 10:18:31;;;;;;;13.95;7.85;;;9.30;99.90;;;;;;4256385;27;20046;-87
2022/03/28 10:20:32;;;;;;;14.65;8.15;;;9.30;99.90;;;;;;4286745;27;20042;-88
2022/03/28 10:22:39;;;;;;;14.75;7.60;;;9.40;99.90;;;;;;4267184;27;20117;-88
2022/03/28 10:24:43;;;;;;;13.65;7.28;;;9.50;99.90;;;;;;4238672;27;20046;-88
2022/03/28 10:26:51;;;;;;;12.95;7.75;;;9.10;99.90;;;;;;4238650;27;20053;-88
2022/03/28 10:29:03;;;;;;;11.68;7.82;;;9.60;99.90;;;;;;4218227;28;20047;-87
2022/03/28 10:31:19;;;;;;;11.73;7.60;;;9.70;99.90;;;;;;4233570;27;20054;-88
2022/03/28 10:33:23;;;;;;;13.88;7.22;;;9.70;99.90;;;;;;4251793;27;20049;-87
2022/03/28 10:35:25;;;;;;;15.30;7.40;;;9.90;99.90;;;;;;4252031;27;20110;-88
2022/03/28 10:37:32;;;;;;;11.13;7.10;;;9.80;99.90;;;;;;4234675;28;20048;-88
2022/03/28 10:39:36;;;;;;;11.52;7.18;;;9.80;99.90;;;;;;4223028;28;20043;-89
2022/03/28 10:41:41;;;;;;;13.23;8.90;;;9.80;99.90;;;;;;4239995;27;20090;-88
2022/03/28 10:43:42;;;;;;;16.20;8.25;;;;;;;;;;4232708;28;20055;-88
2022/03/28 10:45:49;;;;;;;18.20;8.48;;;;;;;;;;4240267;27;20173;-90